createdAt,value
2022-09-05T00:02:04.249Z,4.80
2022-09-05T00:04:42.088Z,4.03
2022-09-05T00:07:43.319Z,3.97
2022-09-05T00:10:12.559Z,4.25
2022-09-05T00:12:43.874Z,3.45
2022-09-05T00:15:39.441Z,3.72
2022-09-05T00:21:31.574Z,3.17
2022-09-05T00:24:31.895Z,4.00
2022-09-05T00:25:14.303Z,6.78
2022-09-05T00:28:25.371Z,5.53
2022-09-05T00:31:53.417Z,6.72
2022-09-05T00:34:20.749Z,6.57
2022-09-05T00:36:53.825Z,5.57
2022-09-05T00:39:36.011Z,3.85
2022-09-05T00:42:14.254Z,4.30
2022-09-05T00:45:02.888Z,4.57
2022-09-05T00:47:48.442Z,5.30
2022-09-05T00:50:25.808Z,4.18
2022-09-05T00:53:07.006Z,5.45
2022-09-05T00:55:38.119Z,6.13
2022-09-05T00:58:37.769Z,6.15
2022-09-05T01:01:26.177Z,7.43
2022-09-05T01:04:19.820Z,7.68
2022-09-05T01:07:21.046Z,8.32
2022-09-05T01:10:12.162Z,7.78
2022-09-05T01:13:22.629Z,7.75
2022-09-05T01:16:20.868Z,8.80
2022-09-05T01:19:09.379Z,7.78
2022-09-05T01:22:03.254Z,6.72
2022-09-05T01:24:45.622Z,6.28
2022-09-05T01:27:42.270Z,6.95
2022-09-05T01:30:42.871Z,7.60
2022-09-05T01:33:36.011Z,8.02
2022-09-05T01:36:40.808Z,7.75
2022-09-05T01:40:11.750Z,7.05
2022-09-05T01:42:53.635Z,8.05
2022-09-05T01:45:39.466Z,6.28
2022-09-05T01:48:16.842Z,5.50
2022-09-05T01:51:28.323Z,5.18
2022-09-05T01:54:25.267Z,5.60
2022-09-05T01:57:09.003Z,4.60
2022-09-05T01:59:39.393Z,5.18
2022-09-05T02:05:09.444Z,5.82
2022-09-05T02:07:55.226Z,5.10
2022-09-05T02:10:40.731Z,4.82
2022-09-05T02:13:34.263Z,5.10
2022-09-05T02:16:17.827Z,4.70
2022-09-05T02:18:57.458Z,4.95
2022-09-05T02:21:36.690Z,5.30
2022-09-05T02:24:58.480Z,4.97
2022-09-05T02:28:05.651Z,5.90
2022-09-05T02:30:47.389Z,6.10
2022-09-05T02:33:38.183Z,6.90
2022-09-05T02:36:13.772Z,7.35
2022-09-05T02:45:08.182Z,7.20
2022-09-05T02:45:08.933Z,7.78
2022-09-05T02:45:27.537Z,8.05
2022-09-05T02:48:17.391Z,7.78
2022-09-05T02:57:28.482Z,8.20
2022-09-05T02:57:42.315Z,9.27
2022-09-05T02:57:47.030Z,8.40
2022-09-05T03:00:12.446Z,8.90
2022-09-05T03:02:43.229Z,9.60
2022-09-05T03:05:17.282Z,9.87
2022-09-05T03:07:59.814Z,10.07
2022-09-05T03:10:53.170Z,10.10
2022-09-05T03:14:01.694Z,10.60
2022-09-05T03:17:01.361Z,11.40
2022-09-05T03:19:50.714Z,11.20
2022-09-05T03:22:36.903Z,10.50
2022-09-05T03:25:41.611Z,10.88
2022-09-05T03:28:20.841Z,9.70
2022-09-05T03:31:17.522Z,11.43
2022-09-05T03:34:08.787Z,10.73
2022-09-05T03:36:51.207Z,10.70
2022-09-05T03:39:40.871Z,11.57
2022-09-05T03:42:19.368Z,12.27
2022-09-05T03:45:05.796Z,11.25
2022-09-05T03:48:02.183Z,11.98
2022-09-05T03:53:29.418Z,11.82
2022-09-05T03:57:13.120Z,13.15
2022-09-05T03:57:19.612Z,13.65
2022-09-05T03:59:50.655Z,13.57
2022-09-05T04:06:28.771Z,13.75
2022-09-05T04:08:26.895Z,14.13
2022-09-05T04:08:40.945Z,14.45
2022-09-05T04:11:45.069Z,13.25
2022-09-05T04:14:25.802Z,13.15
2022-09-05T04:16:59.723Z,13.70
2022-09-05T04:19:41.935Z,14.48
2022-09-05T04:22:40.967Z,13.68
2022-09-05T04:25:16.022Z,14.43
2022-09-05T04:28:13.376Z,15.73
2022-09-05T04:31:03.758Z,14.90
2022-09-05T04:33:54.373Z,15.50
2022-09-05T04:36:33.519Z,15.88
2022-09-05T04:39:18.918Z,14.10
2022-09-05T04:41:53.015Z,16.83
2022-09-05T04:44:27.631Z,17.02
2022-09-05T04:46:58.819Z,17.27
2022-09-05T04:49:30.311Z,17.70
2022-09-05T04:54:45.352Z,17.42
2022-09-05T04:57:31.600Z,18.20
2022-09-05T05:05:58.863Z,17.23
2022-09-05T05:06:08.111Z,17.55
2022-09-05T05:06:31.550Z,18.63
2022-09-05T05:16:39.793Z,19.30
2022-09-05T05:18:08.285Z,20.27
2022-09-05T05:18:16.392Z,18.92
2022-09-05T05:20:42.225Z,21.52
2022-09-05T05:23:16.768Z,22.10
2022-09-05T05:25:54.636Z,21.92
2022-09-05T05:28:28.218Z,20.58
2022-09-05T05:31:07.694Z,20.90
2022-09-05T05:33:37.733Z,24.15
2022-09-05T05:36:09.118Z,22.17
2022-09-05T05:38:58.702Z,21.60
2022-09-05T05:41:48.543Z,23.00
2022-09-05T05:44:26.478Z,20.88
2022-09-05T05:47:07.891Z,21.17
2022-09-05T05:50:01.303Z,21.95
2022-09-05T05:52:46.142Z,21.65
2022-09-05T05:55:52.042Z,19.67
2022-09-05T05:58:36.744Z,21.02
2022-09-05T06:01:37.934Z,20.45
2022-09-05T06:06:53.125Z,19.60
2022-09-05T06:14:48.078Z,19.42
2022-09-05T06:14:57.018Z,20.60
2022-09-05T06:16:31.178Z,19.60
2022-09-05T06:19:17.550Z,19.50
2022-09-05T06:22:23.880Z,18.38
2022-09-05T06:25:26.966Z,17.25
2022-09-05T06:28:18.482Z,18.52
2022-09-05T06:30:57.209Z,17.58
2022-09-05T06:33:50.041Z,17.63
2022-09-05T06:36:39.289Z,18.90
2022-09-05T06:39:15.554Z,18.80
2022-09-05T06:42:28.667Z,17.80
2022-09-05T06:45:46.527Z,17.30
2022-09-05T06:48:46.475Z,17.55
2022-09-05T06:51:46.417Z,19.02
2022-09-05T06:54:49.047Z,18.52
2022-09-05T06:57:44.028Z,16.83
2022-09-05T07:00:48.700Z,15.57
2022-09-05T07:03:16.412Z,15.05
2022-09-05T07:05:56.600Z,14.38
2022-09-05T07:08:44.461Z,14.40
2022-09-05T07:11:23.142Z,14.38
2022-09-05T07:14:03.244Z,14.32
2022-09-05T07:16:41.867Z,13.98
2022-09-05T07:19:25.919Z,13.43
2022-09-05T07:22:46.143Z,15.93
2022-09-05T07:25:22.963Z,15.80
2022-09-05T07:28:29.009Z,16.60
2022-09-05T07:31:10.355Z,15.95
2022-09-05T07:33:40.014Z,15.65
2022-09-05T07:36:16.374Z,16.67
2022-09-05T07:39:02.372Z,15.73
2022-09-05T07:41:42.392Z,15.73
2022-09-05T07:44:18.346Z,16.17
2022-09-05T07:47:05.279Z,18.13
2022-09-05T07:49:39.906Z,17.27
2022-09-05T07:56:51.228Z,17.38
2022-09-05T07:57:02.243Z,17.57
2022-09-05T07:58:13.475Z,16.42
2022-09-05T08:00:43.101Z,16.15
2022-09-05T08:03:13.682Z,15.23
2022-09-05T08:05:45.731Z,11.80
2022-09-05T08:08:23.893Z,12.82
2022-09-05T08:11:24.358Z,13.05
2022-09-05T08:14:35.422Z,11.68
2022-09-05T08:16:44.946Z,10.52
2022-09-05T08:19:33.945Z,10.88
2022-09-05T08:22:03.417Z,9.27
2022-09-05T08:24:52.251Z,10.23
2022-09-05T08:27:50.339Z,10.35
2022-09-05T08:30:26.154Z,8.18
2022-09-05T08:33:11.464Z,6.93
2022-09-05T08:35:45.875Z,7.22
2022-09-05T08:38:15.583Z,5.60
2022-09-05T08:41:10.134Z,5.80
2022-09-05T08:46:40.346Z,4.97
2022-09-05T08:46:55.410Z,5.70
2022-09-05T08:49:37.874Z,4.97
2022-09-05T08:52:34.693Z,6.05
2022-09-05T08:55:09.951Z,3.90
2022-09-05T08:57:49.323Z,3.97
2022-09-05T09:00:24.340Z,4.50
2022-09-05T09:03:11.164Z,4.53
2022-09-05T09:06:15.070Z,4.88
2022-09-05T09:08:50.397Z,3.97
2022-09-05T09:11:26.727Z,4.15
2022-09-05T09:14:29.464Z,3.72
2022-09-05T09:17:15.486Z,3.35
2022-09-05T09:20:06.082Z,3.08
2022-09-05T09:22:39.551Z,2.45
2022-09-05T09:25:14.714Z,2.15
2022-09-05T09:28:48.150Z,3.80
2022-09-05T09:31:39.049Z,3.05
2022-09-05T09:34:33.137Z,2.67
2022-09-05T09:37:32.884Z,3.08
2022-09-05T09:40:22.384Z,2.72
2022-09-05T09:43:10.606Z,2.88
2022-09-05T09:45:53.348Z,2.60
2022-09-05T09:48:51.734Z,2.15
2022-09-05T09:51:26.963Z,3.03
2022-09-05T09:54:32.110Z,2.50
2022-09-05T09:57:27.475Z,2.88
2022-09-05T10:00:11.917Z,2.47
2022-09-05T10:07:31.785Z,1.80
2022-09-05T10:10:50.599Z,2.05
2022-09-05T10:11:23.798Z,1.80
2022-09-05T10:13:14.053Z,2.08
2022-09-05T10:16:22.166Z,1.98
2022-09-05T10:19:15.588Z,1.83
2022-09-05T10:24:54.491Z,2.30
2022-09-05T10:28:07.820Z,2.13
2022-09-05T10:32:25.956Z,1.85
2022-09-05T10:35:16.996Z,2.47
2022-09-05T10:37:05.394Z,2.25
2022-09-05T10:39:37.954Z,2.13
2022-09-05T10:42:22.395Z,2.22
2022-09-05T10:44:56.617Z,2.33
2022-09-05T10:47:57.386Z,2.10
2022-09-05T10:50:49.571Z,2.17
2022-09-05T10:53:17.209Z,1.92
2022-09-05T10:55:52.190Z,1.73
2022-09-05T10:59:22.057Z,2.08
2022-09-05T11:02:28.782Z,1.85
2022-09-05T11:04:58.971Z,2.47
2022-09-05T11:07:45.336Z,1.98
2022-09-05T11:10:20.379Z,1.70
2022-09-05T11:13:20.432Z,1.50
2022-09-05T11:16:16.441Z,2.50
2022-09-05T11:19:17.640Z,1.70
2022-09-05T11:22:06.504Z,1.92
2022-09-05T11:25:02.481Z,1.42
2022-09-05T11:27:35.779Z,1.95
2022-09-05T11:30:29.290Z,1.58
2022-09-05T11:39:51.960Z,2.13
2022-09-05T11:39:52.305Z,1.60
2022-09-05T11:40:28.870Z,1.65
2022-09-05T11:43:33.399Z,1.70
2022-09-05T11:46:25.639Z,1.60
2022-09-05T11:49:14.536Z,1.83
2022-09-05T11:52:03.775Z,2.13
2022-09-05T11:55:05.519Z,1.83
2022-09-05T11:57:53.002Z,1.70
2022-09-05T12:00:38.855Z,1.77
2022-09-05T12:03:57.134Z,1.73
2022-09-05T12:06:30.158Z,1.88
2022-09-05T12:09:10.033Z,2.08
2022-09-05T12:11:57.166Z,2.25
2022-09-05T12:14:54.823Z,1.73
2022-09-05T12:17:34.904Z,2.03
2022-09-05T12:20:17.257Z,1.70
2022-09-05T12:23:07.330Z,1.75
2022-09-05T12:27:39.806Z,1.70
2022-09-05T12:34:05.269Z,1.35
2022-09-05T12:36:12.351Z,1.90
2022-09-05T12:40:58.371Z,1.45
2022-09-05T12:42:10.289Z,2.40
2022-09-05T12:44:45.068Z,1.75
2022-09-05T12:47:21.120Z,1.58
2022-09-05T12:50:02.753Z,1.77
2022-09-05T12:52:33.773Z,1.70
2022-09-05T12:55:13.746Z,1.50
2022-09-05T13:02:57.505Z,1.85
2022-09-05T13:03:08.458Z,1.40
2022-09-05T13:03:53.349Z,1.48
2022-09-05T13:06:31.081Z,1.80
2022-09-05T13:10:04.702Z,1.83
2022-09-05T13:14:53.191Z,2.17
2022-09-05T13:15:23.587Z,2.15
2022-09-05T13:18:03.943Z,2.30
2022-09-05T13:20:34.962Z,2.08
2022-09-05T13:25:43.961Z,1.90
2022-09-05T13:28:14.699Z,2.47
2022-09-05T13:34:37.790Z,2.47
2022-09-05T13:38:06.303Z,1.90
2022-09-05T13:38:12.202Z,1.58
2022-09-05T13:40:09.608Z,2.03
2022-09-05T13:42:45.086Z,2.00
2022-09-05T13:45:18.799Z,2.38
2022-09-05T13:48:05.137Z,1.90
2022-09-05T13:50:44.419Z,1.75
2022-09-05T13:53:15.306Z,2.75
2022-09-05T13:58:24.242Z,2.83
2022-09-05T14:01:11.697Z,2.13
2022-09-05T14:03:55.798Z,2.72
2022-09-05T14:06:45.523Z,2.25
2022-09-05T14:09:36.664Z,2.05
2022-09-05T14:12:23.673Z,2.33
2022-09-05T14:15:13.706Z,1.80
2022-09-05T14:17:51.302Z,2.00
2022-09-05T14:20:43.234Z,2.60
2022-09-05T14:26:04.954Z,1.83
2022-09-05T14:28:51.676Z,2.13
2022-09-05T14:37:11.357Z,2.78
2022-09-05T14:37:53.550Z,2.38
2022-09-05T14:38:14.245Z,1.83
2022-09-05T14:41:20.442Z,2.83
2022-09-05T14:44:15.722Z,2.17
2022-09-05T14:47:02.622Z,2.10
2022-09-05T14:50:03.650Z,2.60
2022-09-05T14:52:35.495Z,2.67
2022-09-05T15:02:41.910Z,2.15
2022-09-05T15:02:48.691Z,2.65
2022-09-05T15:06:35.751Z,2.70
2022-09-05T15:11:48.626Z,2.47
2022-09-05T15:12:21.594Z,3.60
2022-09-05T15:14:50.168Z,5.72
2022-09-05T15:17:24.550Z,4.60
2022-09-05T15:20:06.334Z,4.85
2022-09-05T15:22:37.872Z,5.43
2022-09-05T15:25:26.639Z,4.93
2022-09-05T15:27:55.203Z,7.72
2022-09-05T15:30:35.199Z,4.47
2022-09-05T15:33:26.932Z,3.95
2022-09-05T15:35:55.831Z,3.77
2022-09-05T15:38:54.836Z,3.17
2022-09-05T15:41:27.638Z,2.20
2022-09-05T15:43:58.424Z,5.15
2022-09-05T15:46:37.767Z,5.75
2022-09-05T15:49:33.187Z,4.70
2022-09-05T15:52:31.195Z,13.10
2022-09-05T15:55:28.138Z,8.15
2022-09-05T15:58:01.970Z,10.38
2022-09-05T16:00:32.619Z,9.85
2022-09-05T16:05:06.686Z,5.73
2022-09-05T16:10:29.713Z,9.40
2022-09-05T16:10:45.943Z,10.60
2022-09-05T16:12:16.224Z,6.82
2022-09-05T16:16:35.274Z,6.50
2022-09-05T16:23:16.741Z,17.52
2022-09-05T16:23:24.299Z,10.95
2022-09-05T16:23:41.573Z,9.70
2022-09-05T16:26:25.620Z,10.23
2022-09-05T16:29:05.844Z,4.90
2022-09-05T16:31:51.188Z,9.68
2022-09-05T16:34:50.366Z,23.60
2022-09-05T16:37:22.041Z,16.50
2022-09-05T16:40:18.633Z,4.20
2022-09-05T16:42:55.362Z,3.00
2022-09-05T16:45:43.268Z,2.67
2022-09-05T16:49:11.939Z,2.85
2022-09-05T16:51:39.878Z,2.63
2022-09-05T16:54:20.625Z,3.75
2022-09-05T16:56:53.844Z,3.22
2022-09-05T16:59:29.849Z,2.40
2022-09-05T17:02:06.624Z,2.60
2022-09-05T17:05:03.395Z,3.08
2022-09-05T17:07:42.559Z,2.17
2022-09-05T17:10:19.215Z,2.50
2022-09-05T17:12:54.862Z,2.00
2022-09-05T17:15:31.205Z,1.73
2022-09-05T17:18:21.513Z,2.15
2022-09-05T17:21:01.723Z,2.72
2022-09-05T17:29:24.740Z,1.95
2022-09-05T17:29:26.614Z,1.67
2022-09-05T17:32:38.378Z,2.50
2022-09-05T17:35:24.750Z,1.90
2022-09-05T17:38:12.101Z,1.80
2022-09-05T17:40:45.877Z,1.92
2022-09-05T17:43:29.199Z,2.00
2022-09-05T17:46:23.444Z,2.10
2022-09-05T17:49:13.419Z,1.80
2022-09-05T17:51:51.200Z,2.13
2022-09-05T17:54:33.644Z,1.63
2022-09-05T17:57:29.485Z,1.67
2022-09-05T18:00:00.982Z,2.45
2022-09-05T18:02:54.255Z,1.90
2022-09-05T18:06:03.691Z,1.95
2022-09-05T18:09:08.751Z,2.08
2022-09-05T18:11:44.589Z,1.83
2022-09-05T18:14:25.317Z,1.55
2022-09-05T18:17:36.014Z,2.10
2022-09-05T18:19:41.991Z,2.55
2022-09-05T18:22:28.637Z,2.33
2022-09-05T18:25:30.612Z,1.85
2022-09-05T18:28:16.929Z,1.83
2022-09-05T18:30:45.319Z,1.85
2022-09-05T18:33:54.480Z,2.00
2022-09-05T18:36:25.844Z,1.85
2022-09-05T18:39:27.384Z,1.83
2022-09-05T18:42:33.165Z,1.77
2022-09-05T18:45:14.819Z,2.03
2022-09-05T18:47:57.092Z,2.15
2022-09-05T18:50:32.474Z,1.70
2022-09-05T18:53:10.531Z,1.70
2022-09-05T18:56:21.085Z,2.00
2022-09-05T18:59:12.216Z,2.72
2022-09-05T19:01:58.622Z,2.03
2022-09-05T19:04:40.651Z,1.67
2022-09-05T19:07:22.347Z,1.70
2022-09-05T19:10:02.468Z,2.03
2022-09-05T19:13:08.307Z,2.17
2022-09-05T19:15:48.007Z,2.20
2022-09-05T19:18:26.274Z,2.00
2022-09-05T19:21:19.106Z,2.03
2022-09-05T19:23:54.517Z,2.50
2022-09-05T19:26:24.094Z,2.20
2022-09-05T19:36:55.713Z,2.35
2022-09-05T19:36:55.830Z,2.70
2022-09-05T19:37:14.565Z,2.25
2022-09-05T19:37:49.437Z,2.50
2022-09-05T19:47:25.508Z,2.40
2022-09-05T19:47:41.503Z,3.40
2022-09-05T19:47:44.055Z,3.33
2022-09-05T19:49:12.234Z,3.58
2022-09-05T19:51:41.553Z,2.70
2022-09-05T19:54:25.449Z,2.45
2022-09-05T19:57:07.126Z,3.30
2022-09-05T20:02:15.437Z,5.63
2022-09-05T20:04:57.944Z,6.40
2022-09-05T20:07:29.295Z,11.52
2022-09-05T20:10:00.663Z,10.23
2022-09-05T20:12:29.913Z,7.75
2022-09-05T20:15:17.919Z,5.03
2022-09-05T20:17:46.113Z,4.55
2022-09-05T20:20:26.104Z,4.18
2022-09-05T20:23:07.349Z,3.00
2022-09-05T20:25:47.294Z,3.08
2022-09-05T20:28:18.690Z,2.63
2022-09-05T20:30:52.268Z,3.08
2022-09-05T20:33:26.071Z,2.92
2022-09-05T20:39:15.697Z,3.78
2022-09-05T20:43:24.166Z,3.40
2022-09-05T20:44:55.586Z,4.82
2022-09-05T20:54:06.894Z,3.35
2022-09-05T20:54:21.353Z,3.38
2022-09-05T20:54:22.575Z,3.00
2022-09-05T20:56:23.632Z,2.03
2022-09-05T20:58:51.781Z,1.42
2022-09-05T21:01:23.733Z,1.80
2022-09-05T21:03:54.640Z,1.92
2022-09-05T21:06:33.457Z,1.80
2022-09-05T21:09:08.179Z,1.38
2022-09-05T21:11:36.053Z,1.45
2022-09-05T21:14:05.130Z,1.42
2022-09-05T21:16:42.809Z,1.88
2022-09-05T21:19:27.801Z,1.60
2022-09-05T21:22:07.274Z,1.95
2022-09-05T21:24:36.193Z,1.80
2022-09-05T21:27:24.040Z,2.50
2022-09-05T21:29:59.452Z,2.78
2022-09-05T21:32:38.030Z,1.83
2022-09-05T21:38:01.654Z,2.20
2022-09-05T21:40:29.577Z,2.45
2022-09-05T21:47:33.845Z,2.63
2022-09-05T21:47:37.585Z,1.83
2022-09-05T21:48:37.870Z,1.90
2022-09-05T21:51:13.005Z,2.47
2022-09-05T21:56:01.127Z,2.25
2022-09-05T21:59:26.134Z,1.98
2022-09-05T22:02:16.560Z,2.15
2022-09-05T22:07:32.075Z,1.90
2022-09-05T22:10:06.513Z,2.80
2022-09-05T22:12:36.039Z,1.58
2022-09-05T22:15:27.329Z,1.35
2022-09-05T22:18:06.304Z,1.70
2022-09-05T22:20:51.201Z,1.80
2022-09-05T22:23:40.453Z,1.80
2022-09-05T22:26:08.159Z,2.13
2022-09-05T22:28:38.760Z,1.40
2022-09-05T22:31:07.677Z,2.17
2022-09-05T22:33:36.467Z,1.80
2022-09-05T22:36:04.962Z,2.38
2022-09-05T22:38:33.478Z,1.80
2022-09-05T22:41:01.135Z,2.00
2022-09-05T22:43:34.143Z,1.73
2022-09-05T22:46:01.846Z,1.70
2022-09-05T22:48:29.808Z,1.45
2022-09-05T22:50:57.524Z,1.73
2022-09-05T22:53:25.223Z,1.30
2022-09-05T22:56:08.137Z,1.50
2022-09-05T22:58:42.761Z,1.45
2022-09-05T23:01:11.665Z,1.23
2022-09-05T23:03:39.270Z,1.30
2022-09-05T23:06:10.351Z,1.70
2022-09-05T23:08:37.948Z,2.10
2022-09-05T23:11:10.728Z,2.00
2022-09-05T23:13:38.857Z,2.00
2022-09-05T23:16:06.946Z,2.67
2022-09-05T23:18:34.645Z,2.35
2022-09-05T23:21:04.247Z,2.20
2022-09-05T23:23:32.271Z,2.95
2022-09-05T23:26:04.561Z,2.95
2022-09-05T23:28:32.576Z,2.10
2022-09-05T23:31:01.137Z,2.40
2022-09-05T23:33:29.314Z,2.72
2022-09-05T23:36:08.327Z,2.60
2022-09-05T23:38:36.279Z,2.63
2022-09-05T23:41:08.633Z,2.55
2022-09-05T23:43:36.975Z,2.80
2022-09-05T23:46:05.106Z,3.10
2022-09-05T23:48:32.832Z,2.80
2022-09-05T23:51:09.485Z,3.55
2022-09-05T23:53:37.810Z,3.58
2022-09-05T23:56:08.154Z,3.65
2022-09-05T23:58:36.738Z,3.67
